Time;durP1;ratioP1;P1;durP2;ratioP2;P2;SDS_P1;SDS_P2;PMS_P1;PMS_P2;Temp;Humidity;BMP_temperature;BMP_pressure;BME280_temperature;BME280_humidity;BME280_pressure;Samples;Min_cycle;Max_cycle;Signal;HPM_P1;HPM_P2
2021/12/14 00:02:14;;;;;;;;;13.75;11.00;;;;;9.63;100.00;102481.34;5090993;27;45425;-93
2021/12/14 00:04:41;;;;;;;;;13.50;12.00;;;;;9.62;100.00;102478.66;5090509;27;45235;-92
2021/12/14 00:07:11;;;;;;;;;15.00;11.00;;;;;9.58;100.00;102486.19;5071106;28;45448;-92
2021/12/14 00:09:40;;;;;;;;;13.75;10.25;;;;;9.54;100.00;102463.47;5067821;28;45496;-94
2021/12/14 00:17:08;;;;;;;;;13.00;13.00;;;;;9.44;100.00;102484.25;5088608;27;45259;-83
2021/12/14 00:19:34;;;;;;;;;13.50;11.50;;;;;9.40;100.00;102495.13;5088207;27;45350;-93
2021/12/14 00:22:17;;;;;;;;;13.00;11.00;;;;;9.39;100.00;102495.91;5090569;28;45294;-93
2021/12/14 00:24:43;;;;;;;;;15.50;11.25;;;;;9.36;100.00;102499.16;5089508;28;45341;-94
2021/12/14 00:27:10;;;;;;;;;13.25;11.00;;;;;9.36;100.00;102494.00;5086368;28;45291;-86
2021/12/14 00:29:41;;;;;;;;;9.00;9.00;;;;;9.34;100.00;102487.81;5085847;28;44844;-90
2021/12/14 00:32:13;;;;;;;;;9.25;7.25;;;;;9.28;100.00;102471.84;5088366;27;45226;-82
2021/12/14 00:34:42;;;;;;;;;11.25;10.00;;;;;9.27;100.00;102470.91;5084844;28;45545;-79
2021/12/14 00:37:20;;;;;;;;;11.25;10.75;;;;;9.29;100.00;102477.13;5085869;28;45408;-88
2021/12/14 00:39:51;;;;;;;;;18.00;13.50;;;;;9.32;100.00;102475.56;5083723;28;45413;-92
2021/12/14 00:42:18;;;;;;;;;11.00;9.25;;;;;9.32;100.00;102473.84;5082248;27;45341;-90
2021/12/14 00:44:45;;;;;;;;;9.25;9.00;;;;;9.36;100.00;102477.56;5081639;28;45272;-83
2021/12/14 00:47:12;;;;;;;;;13.00;12.00;;;;;9.34;100.00;102486.91;5081444;28;45318;-87
2021/12/14 00:49:39;;;;;;;;;13.75;12.00;;;;;9.25;100.00;102472.47;5082220;27;45255;-91
2021/12/14 00:52:07;;;;;;;;;17.00;11.75;;;;;9.25;100.00;102472.47;5082986;28;46230;-77
2021/12/14 00:54:34;;;;;;;;;13.75;11.00;;;;;9.27;100.00;102465.75;5083590;27;45865;-88
2021/12/14 00:56:59;;;;;;;;;14.25;13.50;;;;;9.29;100.00;102481.38;5083093;27;45422;-84
2021/12/14 00:59:25;;;;;;;;;17.25;10.25;;;;;9.28;100.00;102474.44;5088250;28;45433;-86
2021/12/14 01:02:02;;;;;;;;;18.00;12.50;;;;;9.31;100.00;102476.34;5084613;28;46520;-88
2021/12/14 01:04:38;;;;;;;;;11.50;9.75;;;;;9.29;100.00;102471.94;5081318;28;45183;-84
2021/12/14 01:07:06;;;;;;;;;12.50;11.25;;;;;9.34;100.00;102484.34;5082106;28;45227;-84
2021/12/14 01:09:36;;;;;;;;;13.75;12.75;;;;;9.36;100.00;102485.31;5081319;27;45338;-87
2021/12/14 01:12:09;;;;;;;;;19.00;12.25;;;;;9.34;100.00;102477.47;5081913;27;45878;-85
2021/12/14 01:14:50;;;;;;;;;11.00;7.25;;;;;9.33;100.00;102473.06;5082572;28;45757;-88
2021/12/14 01:17:40;;;;;;;;;13.00;10.00;;;;;9.31;100.00;102484.09;5080790;28;45487;-91
2021/12/14 01:20:09;;;;;;;;;12.00;10.00;;;;;9.25;100.00;102490.56;5080288;28;45575;-80
2021/12/14 01:25:15;;;;;;;;;8.25;8.25;;;;;9.24;100.00;102503.38;5082382;28;45255;-89
2021/12/14 01:27:44;;;;;;;;;11.75;10.75;;;;;9.20;100.00;102502.25;5067790;28;45323;-86
2021/12/14 01:30:49;;;;;;;;;9.00;9.00;;;;;9.18;100.00;102502.94;5081924;27;45339;-86
2021/12/14 01:33:16;;;;;;;;;12.00;9.00;;;;;9.17;100.00;102509.75;5081489;28;45401;-82
2021/12/14 01:35:45;;;;;;;;;9.00;8.00;;;;;9.17;100.00;102517.50;5081695;27;45903;-84
2021/12/14 01:38:34;;;;;;;;;8.25;5.75;;;;;9.16;100.00;102526.03;5081909;28;45717;-81
2021/12/14 01:41:07;;;;;;;;;8.75;7.25;;;;;9.14;100.00;102530.19;5073563;28;45257;-82
2021/12/14 01:43:39;;;;;;;;;6.25;5.50;;;;;9.16;100.00;102530.31;5070190;28;45341;-83
2021/12/14 01:46:20;;;;;;;;;6.50;4.75;;;;;9.19;100.00;102533.13;5086981;28;45310;-88
2021/12/14 01:48:47;;;;;;;;;8.25;6.25;;;;;9.24;100.00;102536.97;5066336;28;45374;-91
2021/12/14 01:51:14;;;;;;;;;12.75;9.75;;;;;9.25;100.00;102537.09;5086653;28;45628;-89
2021/12/14 01:53:44;;;;;;;;;9.00;6.00;;;;;9.26;100.00;102544.06;5086102;28;45526;-87
2021/12/14 01:56:13;;;;;;;;;10.00;9.25;;;;;9.24;100.00;102555.97;5084178;28;45200;-87
2021/12/14 01:58:43;;;;;;;;;10.75;9.75;;;;;9.26;100.00;102556.09;5083808;28;45345;-86
2021/12/14 02:01:15;;;;;;;;;8.00;6.00;;;;;9.19;100.00;102575.41;5083326;28;45318;-84
2021/12/14 02:04:06;;;;;;;;;12.75;11.00;;;;;9.13;100.00;102578.41;5079911;28;45422;-86
2021/12/14 02:06:33;;;;;;;;;9.00;8.75;;;;;9.09;100.00;102578.91;5062004;28;45406;-84
2021/12/14 02:09:19;;;;;;;;;12.00;9.25;;;;;9.11;100.00;102592.88;5080650;28;45307;-86
2021/12/14 02:11:49;;;;;;;;;17.75;11.00;;;;;9.12;100.00;102586.91;5081830;28;46379;-84
2021/12/14 02:14:15;;;;;;;;;12.00;12.00;;;;;9.17;100.00;102588.97;5082161;27;46478;-89
2021/12/14 02:16:43;;;;;;;;;11.00;7.25;;;;;9.21;100.00;102589.34;5079800;28;45426;-86
2021/12/14 02:19:15;;;;;;;;;11.00;9.25;;;;;9.25;100.00;102588.78;5081675;28;45399;-89
2021/12/14 02:21:44;;;;;;;;;14.00;10.50;;;;;9.25;100.00;102564.63;5081287;28;45523;-86
2021/12/14 02:24:11;;;;;;;;;9.00;9.00;;;;;9.21;100.00;102565.16;5081598;28;46377;-87
2021/12/14 02:26:41;;;;;;;;;14.50;12.75;;;;;9.22;100.00;102554.03;5083567;28;45522;-90
2021/12/14 02:29:09;;;;;;;;;13.00;12.25;;;;;9.28;100.00;102547.69;5081991;28;45322;-92
2021/12/14 02:31:39;;;;;;;;;9.50;7.25;;;;;9.33;100.00;102536.81;5096558;27;45318;-87
2021/12/14 02:34:08;;;;;;;;;13.75;11.50;;;;;9.38;100.00;102535.47;5080675;28;46144;-92
2021/12/14 02:36:42;;;;;;;;;14.25;11.25;;;;;9.40;100.00;102536.50;5061699;28;45855;-91
2021/12/14 02:39:23;;;;;;;;;13.00;12.00;;;;;9.40;100.00;102544.25;5074046;28;45468;-78
2021/12/14 02:41:54;;;;;;;;;15.00;11.50;;;;;9.40;100.00;102532.22;5087493;28;45270;-91
2021/12/14 02:44:21;;;;;;;;;9.75;9.75;;;;;9.39;100.00;102538.19;5085085;28;46716;-87
2021/12/14 02:46:51;;;;;;;;;12.50;7.50;;;;;9.40;100.00;102531.31;5082431;28;45766;-92
2021/12/14 02:49:21;;;;;;;;;16.00;13.75;;;;;9.45;100.00;102541.25;5079429;27;45368;-81
2021/12/14 02:51:53;;;;;;;;;15.25;10.75;;;;;9.48;100.00;102539.69;5084557;28;44807;-91
2021/12/14 02:54:22;;;;;;;;;14.50;9.75;;;;;9.49;100.00;102521.69;5086461;28;46580;-91
2021/12/14 02:56:50;;;;;;;;;12.00;11.00;;;;;9.53;100.00;102522.81;5067783;28;45743;-91
2021/12/14 02:59:29;;;;;;;;;6.75;3.25;;;;;9.55;100.00;102519.59;5082712;28;45298;-89
2021/12/14 03:02:03;;;;;;;;;14.50;12.25;;;;;9.59;100.00;102507.78;5090710;28;44774;-91
2021/12/14 03:04:30;;;;;;;;;15.50;13.00;;;;;9.60;100.00;102504.41;5084998;28;46116;-87
2021/12/14 03:06:59;;;;;;;;;16.00;14.00;;;;;9.59;100.00;102507.78;5092305;28;45171;-79
2021/12/14 03:12:23;;;;;;;;;13.75;12.75;;;;;9.57;100.00;102514.53;5078359;28;45342;-78
2021/12/14 03:14:58;;;;;;;;;14.50;14.00;;;;;9.57;100.00;102514.53;5060085;28;47114;-85
2021/12/14 03:17:24;;;;;;;;;13.75;12.00;;;;;9.56;100.00;102512.72;5079041;28;45412;-76
2021/12/14 03:20:01;;;;;;;;;18.25;11.75;;;;;9.57;100.00;102509.34;5077391;28;45501;-81
2021/12/14 03:22:42;;;;;;;;;15.00;13.75;;;;;9.56;100.00;102508.44;5080323;28;45258;-86
2021/12/14 03:25:10;;;;;;;;;19.75;13.75;;;;;9.57;100.00;102499.88;5062362;28;47412;-82
2021/12/14 03:27:41;;;;;;;;;16.75;15.50;;;;;9.58;100.00;102509.47;5081336;28;45440;-78
2021/12/14 03:30:21;;;;;;;;;14.25;13.00;;;;;9.60;100.00;102505.31;5084678;28;46142;-88
2021/12/14 03:32:47;;;;;;;;;11.50;10.75;;;;;9.60;100.00;102507.91;5081139;27;45252;-80
2021/12/14 03:35:13;;;;;;;;;15.25;13.25;;;;;9.59;100.00;102507.78;5063065;28;45354;-82
2021/12/14 03:37:39;;;;;;;;;14.75;12.75;;;;;9.55;100.00;102498.91;5082281;28;45316;-85
2021/12/14 03:40:07;;;;;;;;;13.75;12.50;;;;;9.53;100.00;102499.53;5081122;28;45191;-80
2021/12/14 03:42:38;;;;;;;;;13.75;9.75;;;;;9.53;100.00;102507.31;5063994;28;45484;-85
2021/12/14 03:45:10;;;;;;;;;12.75;10.00;;;;;9.48;100.00;102499.19;5082123;28;45280;-87
2021/12/14 03:47:44;;;;;;;;;13.25;11.00;;;;;9.50;100.00;102495.06;5063695;28;45869;-81
2021/12/14 03:50:11;;;;;;;;;16.50;12.50;;;;;9.50;100.00;102483.81;5083320;28;45323;-77
2021/12/14 03:52:40;;;;;;;;;12.75;10.75;;;;;9.49;100.00;102488.06;5092848;28;45310;-81
2021/12/14 03:55:23;;;;;;;;;13.00;12.00;;;;;9.50;100.00;102481.25;5086529;28;46364;-85
2021/12/14 03:57:49;;;;;;;;;19.00;12.25;;;;;9.50;100.00;102469.19;5081875;27;45772;-86
2021/12/14 04:00:20;;;;;;;;;13.75;12.75;;;;;9.47;100.00;102471.53;5080986;28;45382;-85
2021/12/14 04:02:47;;;;;;;;;14.50;12.50;;;;;9.45;100.00;102466.25;5081585;27;45260;-89
2021/12/14 04:05:13;;;;;;;;;11.00;9.50;;;;;9.44;100.00;102469.63;5063450;28;45448;-88
2021/12/14 04:07:42;;;;;;;;;12.75;11.25;;;;;9.43;100.00;102472.09;5082586;28;45312;-87
2021/12/14 04:10:18;;;;;;;;;13.00;9.75;;;;;9.40;100.00;102479.63;5082491;27;45480;-87
2021/12/14 04:12:44;;;;;;;;;12.75;10.75;;;;;9.34;100.00;102492.09;5082895;28;45410;-84
2021/12/14 04:15:10;;;;;;;;;12.00;12.00;;;;;9.29;100.00;102499.47;5083642;28;46208;-80
2021/12/14 04:17:38;;;;;;;;;12.25;10.50;;;;;9.25;100.00;102503.50;5088183;27;45909;-84
2021/12/14 04:20:28;;;;;;;;;15.25;12.25;;;;;9.27;100.00;102507.09;5085299;28;45322;-88
2021/12/14 04:22:55;;;;;;;;;12.00;11.50;;;;;9.24;100.00;102509.44;5070351;27;45399;-86
2021/12/14 04:25:26;;;;;;;;;9.25;9.25;;;;;9.20;100.00;102504.84;5080221;27;45477;-89
2021/12/14 04:27:53;;;;;;;;;13.50;11.00;;;;;9.20;100.00;102510.00;5081944;28;45376;-87
2021/12/14 04:30:22;;;;;;;;;11.25;9.25;;;;;9.22;100.00;102515.28;5081019;28;45432;-91
2021/12/14 04:32:50;;;;;;;;;14.00;10.25;;;;;9.22;100.00;102516.19;5082127;28;45172;-89
2021/12/14 04:35:18;;;;;;;;;15.50;11.25;;;;;9.23;100.00;102527.44;5074316;28;45693;-88
2021/12/14 04:37:53;;;;;;;;;13.50;11.00;;;;;9.24;100.00;102518.91;5081845;27;45414;-79
2021/12/14 04:51:53;;;;;;;;;11.75;10.75;;;;;9.25;100.00;102511.25;5080810;28;45355;-83
2021/12/14 04:54:23;;;;;;;;;9.75;9.75;;;;;9.23;100.00;102502.47;5082561;28;45383;-88
2021/12/14 04:56:49;;;;;;;;;12.50;6.00;;;;;9.22;100.00;102521.38;5082203;27;45405;-88
2021/12/14 04:59:23;;;;;;;;;10.50;7.75;;;;;9.18;100.00;102511.56;5080584;28;45380;-83
2021/12/14 05:01:53;;;;;;;;;8.00;8.00;;;;;9.20;100.00;102503.91;5082698;28;45322;-79
2021/12/14 05:04:23;;;;;;;;;10.50;9.75;;;;;9.22;100.00;102505.88;5084638;28;45514;-84
2021/12/14 05:06:53;;;;;;;;;11.50;8.50;;;;;9.20;100.00;102515.19;5083829;28;45382;-75
2021/12/14 05:09:33;;;;;;;;;7.00;7.00;;;;;9.16;100.00;102520.88;5083909;28;45721;-96
2021/12/14 05:12:10;;;;;;;;;10.75;9.00;;;;;9.19;100.00;102518.53;5084105;28;45328;-83
2021/12/14 05:14:39;;;;;;;;;9.00;9.00;;;;;9.18;100.00;102515.84;5064290;28;45545;-85
2021/12/14 05:17:16;;;;;;;;;11.75;9.00;;;;;9.20;100.00;102512.59;5082471;28;46381;-83
2021/12/14 05:19:45;;;;;;;;;8.00;6.00;;;;;9.18;100.00;102519.31;5087654;27;45789;-89
2021/12/14 05:22:17;;;;;;;;;10.75;9.75;;;;;9.20;100.00;102514.25;5080932;28;45269;-89
2021/12/14 05:24:49;;;;;;;;;11.75;10.75;;;;;9.21;100.00;102523.81;5081147;27;45465;-88
2021/12/14 05:27:19;;;;;;;;;12.75;10.50;;;;;9.18;100.00;102518.44;5085462;28;46500;-84
2021/12/14 05:29:45;;;;;;;;;16.50;11.25;;;;;9.16;100.00;102523.47;5081048;28;45983;-85
2021/12/14 05:32:15;;;;;;;;;12.50;9.75;;;;;9.15;100.00;102524.22;5080057;27;45414;-85
2021/12/14 05:34:42;;;;;;;;;12.00;10.50;;;;;9.14;100.00;102525.00;5080611;27;45565;-82
2021/12/14 05:37:10;;;;;;;;;12.00;9.50;;;;;9.12;100.00;102527.50;5080237;28;46037;-82
2021/12/14 05:40:17;;;;;;;;;12.50;10.00;;;;;9.16;100.00;102525.16;5079878;27;45377;-91
2021/12/14 05:45:17;;;;;;;;;12.00;10.25;;;;;9.21;100.00;102523.81;5080146;27;45299;-83
2021/12/14 05:47:48;;;;;;;;;10.75;7.25;;;;;9.25;100.00;102521.59;5084312;28;45243;-88
2021/12/14 05:50:23;;;;;;;;;12.00;11.00;;;;;9.31;100.00;102531.50;5063679;28;45537;-86
2021/12/14 05:52:49;;;;;;;;;15.75;11.00;;;;;9.32;100.00;102533.31;5086221;27;45236;-91
2021/12/14 05:55:19;;;;;;;;;12.00;10.00;;;;;9.31;100.00;102538.38;5085395;28;45326;-85
2021/12/14 05:57:45;;;;;;;;;13.00;11.75;;;;;9.30;100.00;102537.44;5083809;27;45213;-92
2021/12/14 06:00:13;;;;;;;;;11.00;9.50;;;;;9.27;100.00;102537.22;5064049;28;45327;-91
2021/12/14 06:02:39;;;;;;;;;15.25;11.50;;;;;9.29;100.00;102531.41;5066779;28;45350;-93
2021/12/14 06:05:11;;;;;;;;;10.75;10.75;;;;;9.29;100.00;102535.66;5092710;28;45264;-92
2021/12/14 06:07:37;;;;;;;;;14.00;13.00;;;;;9.25;100.00;102541.38;5095862;28;45420;-94
2021/12/14 06:10:03;;;;;;;;;12.25;10.50;;;;;9.21;100.00;102541.91;5093479;28;45298;-91
2021/12/14 06:12:32;;;;;;;;;18.50;13.75;;;;;9.21;100.00;102555.75;5090226;27;45407;-92
2021/12/14 06:15:02;;;;;;;;;10.25;9.25;;;;;9.22;100.00;102556.63;5104851;28;44739;-91
2021/12/14 06:17:34;;;;;;;;;16.00;13.00;;;;;9.24;100.00;102566.31;5107784;27;45059;-82
2021/12/14 06:20:07;;;;;;;;;12.25;12.25;;;;;9.25;100.00;102569.81;5102529;28;45824;-92
2021/12/14 06:22:34;;;;;;;;;15.75;14.00;;;;;9.25;100.00;102568.09;5091725;28;45215;-85
2021/12/14 06:25:07;;;;;;;;;18.50;13.25;;;;;9.26;100.00;102559.56;5090715;28;45150;-87
2021/12/14 06:27:33;;;;;;;;;14.50;12.00;;;;;9.29;100.00;102567.59;5080882;28;45354;-82
2021/12/14 06:30:07;;;;;;;;;18.25;14.00;;;;;9.33;100.00;102560.06;5080504;28;45248;-94
2021/12/14 06:32:40;;;;;;;;;12.25;12.25;;;;;9.35;100.00;102558.47;5066284;27;45331;-79
2021/12/14 06:35:20;;;;;;;;;12.00;10.00;;;;;9.32;100.00;102558.28;5078537;28;45579;-93
2021/12/14 06:38:21;;;;;;;;;15.00;13.50;;;;;9.28;100.00;102563.19;5080439;27;46517;-87
2021/12/14 06:40:53;;;;;;;;;11.00;10.25;;;;;9.28;100.00;102577.81;5078882;27;45366;-92
2021/12/14 06:43:27;;;;;;;;;10.25;9.25;;;;;9.28;100.00;102589.03;5082732;27;45422;-89
2021/12/14 06:45:58;;;;;;;;;10.00;9.50;;;;;9.27;100.00;102582.06;5060716;28;45740;-84
2021/12/14 06:48:35;;;;;;;;;12.75;12.00;;;;;9.27;100.00;102581.16;5080819;28;45360;-80
2021/12/14 06:51:06;;;;;;;;;11.50;11.00;;;;;9.23;100.00;102582.59;5078522;27;45864;-88
2021/12/14 06:53:33;;;;;;;;;9.75;9.00;;;;;9.18;100.00;102581.34;5059956;28;45293;-90
2021/12/14 06:56:02;;;;;;;;;10.00;9.00;;;;;9.17;100.00;102584.69;5061221;28;45615;-84
2021/12/14 06:58:34;;;;;;;;;8.50;8.25;;;;;9.17;100.00;102588.97;5077069;28;46315;-86
2021/12/14 07:01:32;;;;;;;;;12.75;10.25;;;;;9.13;100.00;102598.16;5090086;27;45843;-82
2021/12/14 07:04:04;;;;;;;;;11.50;11.00;;;;;9.12;100.00;102602.44;5054360;28;45467;-84
2021/12/14 07:06:35;;;;;;;;;12.75;10.75;;;;;9.14;100.00;102605.13;5080501;28;45480;-91
2021/12/14 07:09:17;;;;;;;;;12.50;10.50;;;;;9.08;100.00;102595.19;5076567;27;46107;-82
2021/12/14 07:11:55;;;;;;;;;12.50;10.50;;;;;9.06;100.00;102603.63;5077210;28;45946;-82
2021/12/14 07:14:28;;;;;;;;;13.75;12.25;;;;;9.04;100.00;102598.34;5076537;28;45382;-79
2021/12/14 07:16:56;;;;;;;;;18.25;12.50;;;;;9.04;100.00;102595.75;5077182;28;45564;-80
2021/12/14 07:19:53;;;;;;;;;9.00;9.00;;;;;9.05;100.00;102589.81;5076055;28;45561;-82
2021/12/14 07:22:25;;;;;;;;;12.25;10.25;;;;;9.05;100.00;102592.41;5084224;28;45576;-83
2021/12/14 07:25:14;;;;;;;;;18.00;13.25;;;;;9.06;100.00;102604.53;5072719;28;45437;-76
2021/12/14 07:27:44;;;;;;;;;13.00;12.00;;;;;9.05;100.00;102600.16;5081393;27;45479;-78
2021/12/14 07:30:20;;;;;;;;;13.50;11.75;;;;;9.06;100.00;102601.03;5076612;28;45559;-77
2021/12/14 07:32:51;;;;;;;;;16.50;11.75;;;;;9.08;100.00;102594.31;5074180;28;45913;-78
2021/12/14 07:35:24;;;;;;;;;13.00;11.75;;;;;9.10;100.00;102598.81;5074515;28;45414;-79
2021/12/14 07:37:51;;;;;;;;;12.25;11.00;;;;;9.12;100.00;102596.38;5074736;28;45375;-84
2021/12/14 07:40:17;;;;;;;;;15.75;13.75;;;;;9.12;100.00;102597.25;5055723;28;48091;-84
2021/12/14 07:42:43;;;;;;;;;20.25;14.00;;;;;9.14;100.00;102600.88;5077440;27;47302;-87
2021/12/14 07:45:10;;;;;;;;;12.25;10.00;;;;;9.14;100.00;102608.63;5076001;28;45734;-79
2021/12/14 07:47:36;;;;;;;;;14.00;11.25;;;;;9.11;100.00;102603.19;5076585;27;45558;-79
2021/12/14 07:50:03;;;;;;;;;13.75;10.25;;;;;9.12;100.00;102609.28;5076630;27;45353;-86
2021/12/14 07:52:35;;;;;;;;;12.50;11.50;;;;;9.12;100.00;102617.03;5077073;28;45306;-83
2021/12/14 07:55:28;;;;;;;;;12.75;11.50;;;;;9.15;100.00;102627.59;5076501;28;45317;-83
2021/12/14 07:57:54;;;;;;;;;13.25;12.25;;;;;9.14;100.00;102629.28;5076187;28;45366;-85
2021/12/14 08:00:26;;;;;;;;;16.25;12.25;;;;;9.10;100.00;102629.81;5075558;28;45422;-84
2021/12/14 08:02:57;;;;;;;;;11.75;8.25;;;;;9.10;100.00;102626.34;5075729;28;45880;-83
2021/12/14 08:05:27;;;;;;;;;13.25;12.00;;;;;9.12;100.00;102629.97;5076113;28;45422;-82
2021/12/14 08:07:58;;;;;;;;;18.00;13.75;;;;;9.13;100.00;102642.06;5057359;28;45547;-83
2021/12/14 08:10:32;;;;;;;;;14.50;12.75;;;;;9.12;100.00;102648.94;5069167;27;46140;-82
2021/12/14 08:13:13;;;;;;;;;16.25;15.00;;;;;9.10;100.00;102654.78;5073888;27;45746;-88
2021/12/14 08:15:43;;;;;;;;;20.25;17.75;;;;;9.11;100.00;102662.63;5077556;27;45754;-82
2021/12/14 08:18:18;;;;;;;;;19.00;17.00;;;;;9.12;100.00;102656.69;5077782;27;45664;-82
2021/12/14 08:21:05;;;;;;;;;23.50;19.00;;;;;9.12;100.00;102664.44;5087199;27;45437;-91
2021/12/14 08:23:37;;;;;;;;;15.75;10.75;;;;;9.11;100.00;102664.34;5068843;28;45294;-87
2021/12/14 08:26:19;;;;;;;;;21.50;17.75;;;;;9.14;100.00;102668.06;5086414;28;45264;-86
2021/12/14 08:28:51;;;;;;;;;20.50;18.00;;;;;9.16;100.00;102660.41;5087281;28;45657;-92
2021/12/14 08:31:18;;;;;;;;;18.75;16.75;;;;;9.17;100.00;102667.41;5086067;27;46315;-83
2021/12/14 08:33:52;;;;;;;;;24.50;16.75;;;;;9.19;100.00;102667.50;5084730;28;45315;-78
2021/12/14 08:36:21;;;;;;;;;18.00;17.50;;;;;9.21;100.00;102664.28;5080485;28;45512;-82
2021/12/14 08:38:46;;;;;;;;;15.25;14.00;;;;;9.25;100.00;102661.16;5080261;28;45417;-87
2021/12/14 08:41:20;;;;;;;;;22.25;19.50;;;;;9.27;100.00;102669.94;5058918;28;45455;-87
2021/12/14 08:43:48;;;;;;;;;21.50;19.75;;;;;9.29;100.00;102662.28;5061359;28;45340;-79
2021/12/14 08:46:28;;;;;;;;;27.25;18.50;;;;;9.33;100.00;102666.06;5061134;28;45327;-86
2021/12/14 08:49:05;;;;;;;;;23.00;17.75;;;;;9.28;100.00;102669.16;5078173;27;45506;-85
2021/12/14 08:51:40;;;;;;;;;21.00;17.00;;;;;9.29;100.00;102678.72;5062515;27;48019;-87
2021/12/14 08:54:25;;;;;;;;;19.25;17.50;;;;;9.32;100.00;102690.09;5060000;27;45855;-81
2021/12/14 08:57:07;;;;;;;;;18.50;15.50;;;;;9.36;100.00;102692.13;5065335;28;45886;-83
2021/12/14 08:59:33;;;;;;;;;19.00;15.25;;;;;9.38;100.00;102672.47;5058962;28;45446;-82
2021/12/14 09:02:02;;;;;;;;;20.50;19.25;;;;;9.40;100.00;102673.50;5059731;28;45671;-84
2021/12/14 09:04:36;;;;;;;;;19.00;18.75;;;;;9.39;100.00;102670.03;5069867;28;45893;-83
2021/12/14 09:07:15;;;;;;;;;16.75;13.75;;;;;9.40;100.00;102658.88;5060043;28;45408;-82
2021/12/14 09:09:41;;;;;;;;;17.00;14.50;;;;;9.41;100.00;102652.94;5078213;28;45496;-83
2021/12/14 09:12:13;;;;;;;;;18.50;16.50;;;;;9.42;100.00;102652.16;5077993;27;46158;-84
2021/12/14 09:14:40;;;;;;;;;15.00;12.00;;;;;9.42;100.00;102659.91;5076736;28;45469;-82
2021/12/14 09:17:08;;;;;;;;;21.75;18.00;;;;;9.41;100.00;102660.69;5077683;28;45457;-84
2021/12/14 09:19:41;;;;;;;;;25.75;20.00;;;;;9.44;100.00;102665.22;5078260;27;45580;-83
2021/12/14 09:22:18;;;;;;;;;21.25;17.25;;;;;9.44;100.00;102676.44;5077738;28;45365;-83
2021/12/14 09:24:44;;;;;;;;;21.50;16.25;;;;;9.50;100.00;102680.31;5078355;27;45309;-84
2021/12/14 09:27:15;;;;;;;;;24.75;19.00;;;;;9.51;100.00;102672.69;5058807;28;45496;-85
2021/12/14 09:29:41;;;;;;;;;21.75;19.75;;;;;9.52;100.00;102681.31;5078253;27;45212;-83
2021/12/14 09:32:11;;;;;;;;;16.00;13.50;;;;;9.54;100.00;102679.75;5078996;27;46195;-85
2021/12/14 09:34:40;;;;;;;;;26.50;19.25;;;;;9.56;100.00;102675.63;5078772;27;45433;-83
2021/12/14 09:37:09;;;;;;;;;20.75;18.50;;;;;9.62;100.00;102680.38;5081931;28;45377;-83
2021/12/14 09:39:39;;;;;;;;;18.25;15.00;;;;;9.66;100.00;102696.25;5083880;27;45407;-88
2021/12/14 09:42:09;;;;;;;;;21.00;16.75;;;;;9.70;100.00;102695.72;5089746;27;45499;-86
2021/12/14 09:44:36;;;;;;;;;20.25;14.75;;;;;9.72;100.00;102680.31;5080400;28;45339;-86
2021/12/14 09:47:09;;;;;;;;;20.00;14.50;;;;;9.74;100.00;102692.59;5062582;28;45931;-83
2021/12/14 09:49:36;;;;;;;;;21.00;17.25;;;;;9.78;100.00;102700.59;5080481;28;45355;-82
2021/12/14 09:52:09;;;;;;;;;15.75;13.50;;;;;9.79;100.00;102699.81;5078514;27;45317;-82
2021/12/14 09:54:36;;;;;;;;;20.50;16.25;;;;;9.79;100.00;102699.81;5077764;27;45457;-83
2021/12/14 09:57:08;;;;;;;;;20.50;15.50;;;;;9.80;100.00;102702.50;5076841;28;45544;-82
2021/12/14 09:59:36;;;;;;;;;18.50;18.25;;;;;9.81;100.00;102706.00;5081332;28;45264;-90
2021/12/14 10:02:32;;;;;;;;;20.75;17.50;;;;;9.79;100.00;102699.81;5059782;28;47384;-83
2021/12/14 10:05:03;;;;;;;;;22.00;19.75;;;;;9.78;100.00;102704.06;5060360;28;45458;-88
2021/12/14 10:07:29;;;;;;;;;21.50;18.50;;;;;9.79;100.00;102705.00;5064695;28;45421;-93
2021/12/14 10:09:59;;;;;;;;;22.50;19.50;;;;;9.80;100.00;102701.63;5087402;27;45600;-84
2021/12/14 10:15:14;;;;;;;;;18.50;17.00;;;;;9.84;100.00;102691.63;5083208;28;46068;-93
2021/12/14 10:17:41;;;;;;;;;29.25;21.25;;;;;9.85;100.00;102701.19;5083835;28;45390;-88
2021/12/14 10:20:09;;;;;;;;;20.00;18.00;;;;;9.85;100.00;102700.28;5082296;27;45329;-85
2021/12/14 10:22:35;;;;;;;;;20.50;18.25;;;;;9.88;100.00;102704.00;5058450;28;47643;-80
2021/12/14 10:25:07;;;;;;;;;25.75;20.50;;;;;9.87;100.00;102694.47;5075970;28;45974;-84
2021/12/14 10:27:34;;;;;;;;;24.75;21.25;;;;;9.90;100.00;102694.69;5072885;28;45618;-80
2021/12/14 10:30:02;;;;;;;;;22.25;21.00;;;;;9.94;100.00;102693.22;5076494;27;45500;-80
2021/12/14 10:32:33;;;;;;;;;24.00;23.00;;;;;9.96;100.00;102701.13;5057985;28;47916;-80
2021/12/14 10:35:06;;;;;;;;;23.50;21.25;;;;;9.95;100.00;102701.91;5076775;28;45947;-81
2021/12/14 10:37:52;;;;;;;;;28.25;22.00;;;;;9.94;100.00;102701.00;5076827;28;45325;-81
2021/12/14 10:43:20;;;;;;;;;30.75;23.00;;;;;10.04;100.00;102707.81;5076220;28;45481;-80
2021/12/14 10:45:54;;;;;;;;;24.75;21.50;;;;;10.09;100.00;102703.91;5058438;28;45448;-81
2021/12/14 10:48:24;;;;;;;;;28.00;24.00;;;;;10.16;100.00;102705.25;5076532;28;45568;-79
2021/12/14 10:50:51;;;;;;;;;23.25;19.75;;;;;10.15;100.00;102709.53;5058284;28;45402;-77
2021/12/14 10:53:20;;;;;;;;;24.25;22.00;;;;;10.18;100.00;102704.59;5039860;28;46666;-78
2021/12/14 10:56:05;;;;;;;;;22.50;20.75;;;;;10.20;100.00;102696.94;5075471;28;45465;-78
2021/12/14 10:58:32;;;;;;;;;24.25;21.25;;;;;10.23;100.00;102699.78;5076530;27;45385;-78
2021/12/14 11:01:05;;;;;;;;;30.75;22.25;;;;;10.25;100.00;102700.81;5076679;28;45468;-77
2021/12/14 11:03:36;;;;;;;;;22.25;21.00;;;;;10.27;100.00;102709.56;5075490;27;46367;-79
2021/12/14 11:06:10;;;;;;;;;25.00;22.50;;;;;10.29;100.00;102701.94;5075371;27;45465;-80
2021/12/14 11:11:12;;;;;;;;;25.00;22.00;;;;;10.27;100.00;102696.63;5080883;28;45165;-76
2021/12/14 11:13:45;;;;;;;;;25.75;20.75;;;;;10.27;100.00;102706.97;5087606;28;46000;-80
2021/12/14 11:16:19;;;;;;;;;20.50;16.00;;;;;10.29;100.00;102699.34;5087337;27;45407;-79
2021/12/14 11:18:48;;;;;;;;;21.75;20.75;;;;;10.31;100.00;102700.38;5081419;27;45447;-81
2021/12/14 11:21:19;;;;;;;;;23.00;22.75;;;;;10.33;100.00;102698.78;5076453;28;45451;-86
2021/12/14 11:23:48;;;;;;;;;26.25;22.00;;;;;10.32;100.00;102689.19;5077733;28;45504;-84
2021/12/14 11:26:20;;;;;;;;;27.75;23.00;;;;;10.35;100.00;102692.94;5075853;28;45352;-83
2021/12/14 11:28:48;;;;;;;;;24.75;20.50;;;;;10.36;100.00;102689.59;5075955;28;45424;-83
2021/12/14 11:31:41;;;;;;;;;31.75;27.00;;;;;10.41;100.00;102689.03;5076880;28;45519;-88
2021/12/14 11:34:16;;;;;;;;;35.50;29.00;;;;;10.45;100.00;102688.50;5075607;27;47269;-86
2021/12/14 11:36:52;;;;;;;;;29.75;25.50;;;;;10.47;100.00;102690.41;5077632;28;45274;-85
2021/12/14 11:39:27;;;;;;;;;32.00;26.00;;;;;10.50;100.00;102690.66;5080436;28;45397;-84
2021/12/14 11:42:01;;;;;;;;;27.75;25.25;;;;;10.53;100.00;102682.19;5080213;28;45262;-90
2021/12/14 11:44:34;;;;;;;;;35.00;28.00;;;;;10.55;100.00;102679.72;5076169;28;45451;-84
2021/12/14 11:50:32;;;;;;;;;34.75;31.25;;;;;10.58;100.00;102679.94;5081287;28;45446;-85
2021/12/14 11:53:11;;;;;;;;;32.00;30.00;;;;;10.59;100.00;102682.66;5063127;28;45483;-89
2021/12/14 11:55:59;;;;;;;;;33.50;26.00;;;;;10.57;100.00;102670.38;5080971;27;45485;-79
2021/12/14 11:58:30;;;;;;;;;31.75;28.50;;;;;10.55;100.00;102671.94;5080918;27;46034;-87
2021/12/14 12:01:17;;;;;;;;;32.75;26.75;;;;;10.58;100.00;102664.41;5079515;27;45236;-82
2021/12/14 12:04:03;;;;;;;;;36.75;28.00;;;;;10.59;100.00;102661.03;5078986;27;45684;-81
2021/12/14 12:12:03;;;;;;;;;31.75;28.00;;;;;10.72;100.00;102657.66;5072921;28;45478;-80
2021/12/14 12:14:57;;;;;;;;;39.50;30.00;;;;;10.72;100.00;102647.31;5075768;28;45489;-79
2021/12/14 12:17:43;;;;;;;;;29.00;27.00;;;;;10.73;100.00;102646.50;5069670;28;45822;-78